sensor_id;sensor_type;location;lat;lon;timestamp;P1;durP1;ratioP1;P2;durP2;ratioP2
76604;SDS011;73179;50.978;16.998;2024-02-28T00:02:02;58.28;;;23.30;;
76604;SDS011;73179;50.978;16.998;2024-02-28T00:04:31;66.03;;;26.92;;
76604;SDS011;73179;50.978;16.998;2024-02-28T00:06:57;59.00;;;25.85;;
76604;SDS011;73179;50.978;16.998;2024-02-28T00:09:25;65.05;;;26.13;;
76604;SDS011;73179;50.978;16.998;2024-02-28T00:11:52;64.10;;;27.23;;
76604;SDS011;73179;50.978;16.998;2024-02-28T00:14:18;67.15;;;24.25;;
76604;SDS011;73179;50.978;16.998;2024-02-28T00:16:45;63.47;;;25.20;;
76604;SDS011;73179;50.978;16.998;2024-02-28T00:19:12;68.90;;;27.60;;
76604;SDS011;73179;50.978;16.998;2024-02-28T00:21:38;71.45;;;28.05;;
76604;SDS011;73179;50.978;16.998;2024-02-28T00:24:09;63.70;;;26.65;;
76604;SDS011;73179;50.978;16.998;2024-02-28T00:26:35;71.57;;;27.90;;
76604;SDS011;73179;50.978;16.998;2024-02-28T00:29:02;68.22;;;28.27;;
76604;SDS011;73179;50.978;16.998;2024-02-28T00:31:29;69.20;;;25.23;;
76604;SDS011;73179;50.978;16.998;2024-02-28T00:33:55;76.20;;;28.75;;
76604;SDS011;73179;50.978;16.998;2024-02-28T00:36:21;66.30;;;27.25;;
76604;SDS011;73179;50.978;16.998;2024-02-28T00:38:47;71.25;;;25.80;;
76604;SDS011;73179;50.978;16.998;2024-02-28T00:41:13;71.00;;;30.45;;
76604;SDS011;73179;50.978;16.998;2024-02-28T00:43:40;63.60;;;28.83;;
76604;SDS011;73179;50.978;16.998;2024-02-28T00:46:06;74.50;;;29.40;;
76604;SDS011;73179;50.978;16.998;2024-02-28T00:48:37;72.57;;;30.05;;
76604;SDS011;73179;50.978;16.998;2024-02-28T00:51:04;69.88;;;28.92;;
76604;SDS011;73179;50.978;16.998;2024-02-28T00:53:31;75.75;;;31.38;;
76604;SDS011;73179;50.978;16.998;2024-02-28T00:55:57;65.53;;;30.17;;
76604;SDS011;73179;50.978;16.998;2024-02-28T00:58:23;75.47;;;30.08;;
76604;SDS011;73179;50.978;16.998;2024-02-28T01:00:51;71.93;;;31.30;;
76604;SDS011;73179;50.978;16.998;2024-02-28T01:03:18;79.15;;;33.08;;
76604;SDS011;73179;50.978;16.998;2024-02-28T01:05:44;75.35;;;32.53;;
76604;SDS011;73179;50.978;16.998;2024-02-28T01:08:10;76.43;;;33.70;;
76604;SDS011;73179;50.978;16.998;2024-02-28T01:10:36;73.43;;;30.60;;
76604;SDS011;73179;50.978;16.998;2024-02-28T01:13:04;78.80;;;33.63;;
76604;SDS011;73179;50.978;16.998;2024-02-28T01:15:30;77.15;;;34.80;;
76604;SDS011;73179;50.978;16.998;2024-02-28T01:17:56;82.90;;;33.45;;
76604;SDS011;73179;50.978;16.998;2024-02-28T01:20:22;79.18;;;32.53;;
76604;SDS011;73179;50.978;16.998;2024-02-28T01:22:48;81.35;;;34.75;;
76604;SDS011;73179;50.978;16.998;2024-02-28T01:25:14;86.28;;;34.13;;
76604;SDS011;73179;50.978;16.998;2024-02-28T01:27:41;83.40;;;32.78;;
76604;SDS011;73179;50.978;16.998;2024-02-28T01:30:06;81.32;;;34.78;;
76604;SDS011;73179;50.978;16.998;2024-02-28T01:32:33;80.45;;;33.65;;
76604;SDS011;73179;50.978;16.998;2024-02-28T01:34:59;78.18;;;34.58;;
76604;SDS011;73179;50.978;16.998;2024-02-28T01:37:25;80.10;;;32.85;;
76604;SDS011;73179;50.978;16.998;2024-02-28T01:39:51;76.03;;;33.70;;
76604;SDS011;73179;50.978;16.998;2024-02-28T01:42:18;81.00;;;36.22;;
76604;SDS011;73179;50.978;16.998;2024-02-28T01:44:44;80.10;;;34.33;;
76604;SDS011;73179;50.978;16.998;2024-02-28T01:47:13;93.55;;;33.55;;
76604;SDS011;73179;50.978;16.998;2024-02-28T01:49:42;77.35;;;33.72;;
76604;SDS011;73179;50.978;16.998;2024-02-28T01:52:12;80.65;;;33.00;;
76604;SDS011;73179;50.978;16.998;2024-02-28T01:54:38;81.20;;;33.00;;
76604;SDS011;73179;50.978;16.998;2024-02-28T01:57:05;83.95;;;32.70;;
76604;SDS011;73179;50.978;16.998;2024-02-28T01:59:32;78.72;;;33.08;;
76604;SDS011;73179;50.978;16.998;2024-02-28T02:02:00;83.43;;;33.40;;
76604;SDS011;73179;50.978;16.998;2024-02-28T02:04:26;97.40;;;38.33;;
76604;SDS011;73179;50.978;16.998;2024-02-28T02:06:53;93.43;;;35.92;;
76604;SDS011;73179;50.978;16.998;2024-02-28T02:09:19;94.90;;;35.25;;
76604;SDS011;73179;50.978;16.998;2024-02-28T02:11:46;93.55;;;34.38;;
76604;SDS011;73179;50.978;16.998;2024-02-28T02:14:12;109.65;;;38.08;;
76604;SDS011;73179;50.978;16.998;2024-02-28T02:16:39;100.22;;;37.88;;
76604;SDS011;73179;50.978;16.998;2024-02-28T02:19:05;101.38;;;37.63;;
76604;SDS011;73179;50.978;16.998;2024-02-28T02:21:34;114.30;;;38.92;;
76604;SDS011;73179;50.978;16.998;2024-02-28T02:24:06;110.63;;;37.47;;
76604;SDS011;73179;50.978;16.998;2024-02-28T02:26:33;124.30;;;40.35;;
76604;SDS011;73179;50.978;16.998;2024-02-28T02:28:59;114.90;;;38.47;;
76604;SDS011;73179;50.978;16.998;2024-02-28T02:31:25;116.50;;;37.25;;
76604;SDS011;73179;50.978;16.998;2024-02-28T02:33:51;103.60;;;36.33;;
76604;SDS011;73179;50.978;16.998;2024-02-28T02:36:17;116.57;;;39.45;;
76604;SDS011;73179;50.978;16.998;2024-02-28T02:38:43;125.07;;;38.25;;
76604;SDS011;73179;50.978;16.998;2024-02-28T02:41:10;119.32;;;36.75;;
76604;SDS011;73179;50.978;16.998;2024-02-28T02:43:35;124.53;;;40.72;;
76604;SDS011;73179;50.978;16.998;2024-02-28T02:46:02;106.32;;;36.40;;
76604;SDS011;73179;50.978;16.998;2024-02-28T02:48:28;122.30;;;39.42;;
76604;SDS011;73179;50.978;16.998;2024-02-28T02:50:54;116.82;;;37.90;;
76604;SDS011;73179;50.978;16.998;2024-02-28T02:53:20;102.95;;;33.47;;
76604;SDS011;73179;50.978;16.998;2024-02-28T02:55:47;125.50;;;37.28;;
76604;SDS011;73179;50.978;16.998;2024-02-28T02:58:13;113.78;;;37.35;;
76604;SDS011;73179;50.978;16.998;2024-02-28T03:00:39;108.63;;;35.75;;
76604;SDS011;73179;50.978;16.998;2024-02-28T03:03:05;117.45;;;35.80;;
76604;SDS011;73179;50.978;16.998;2024-02-28T03:05:31;122.63;;;35.05;;
76604;SDS011;73179;50.978;16.998;2024-02-28T03:07:57;120.47;;;35.72;;
76604;SDS011;73179;50.978;16.998;2024-02-28T03:10:24;103.13;;;34.15;;
76604;SDS011;73179;50.978;16.998;2024-02-28T03:12:49;109.60;;;36.17;;
76604;SDS011;73179;50.978;16.998;2024-02-28T03:15:16;108.93;;;33.65;;
76604;SDS011;73179;50.978;16.998;2024-02-28T03:17:42;111.97;;;34.15;;
76604;SDS011;73179;50.978;16.998;2024-02-28T03:20:08;108.65;;;33.17;;
76604;SDS011;73179;50.978;16.998;2024-02-28T03:22:35;115.00;;;35.72;;
76604;SDS011;73179;50.978;16.998;2024-02-28T03:25:01;118.05;;;33.97;;
76604;SDS011;73179;50.978;16.998;2024-02-28T03:27:27;102.07;;;31.80;;
76604;SDS011;73179;50.978;16.998;2024-02-28T03:29:53;107.88;;;33.42;;
76604;SDS011;73179;50.978;16.998;2024-02-28T03:32:19;117.72;;;35.15;;
76604;SDS011;73179;50.978;16.998;2024-02-28T03:34:45;121.05;;;34.15;;
76604;SDS011;73179;50.978;16.998;2024-02-28T03:37:11;116.00;;;35.13;;
76604;SDS011;73179;50.978;16.998;2024-02-28T03:39:37;102.82;;;33.78;;
76604;SDS011;73179;50.978;16.998;2024-02-28T03:42:03;116.53;;;33.30;;
76604;SDS011;73179;50.978;16.998;2024-02-28T03:44:30;114.35;;;35.03;;
76604;SDS011;73179;50.978;16.998;2024-02-28T03:46:56;105.93;;;35.35;;
76604;SDS011;73179;50.978;16.998;2024-02-28T03:49:22;102.60;;;33.45;;
76604;SDS011;73179;50.978;16.998;2024-02-28T03:51:48;103.95;;;30.30;;
76604;SDS011;73179;50.978;16.998;2024-02-28T03:54:14;110.88;;;33.25;;
76604;SDS011;73179;50.978;16.998;2024-02-28T03:56:40;87.25;;;28.65;;
76604;SDS011;73179;50.978;16.998;2024-02-28T03:59:06;101.40;;;31.17;;
76604;SDS011;73179;50.978;16.998;2024-02-28T04:01:32;107.80;;;31.83;;
76604;SDS011;73179;50.978;16.998;2024-02-28T04:03:58;107.38;;;30.73;;
76604;SDS011;73179;50.978;16.998;2024-02-28T04:06:24;92.57;;;26.77;;
76604;SDS011;73179;50.978;16.998;2024-02-28T04:08:51;84.88;;;30.42;;
76604;SDS011;73179;50.978;16.998;2024-02-28T04:11:17;101.18;;;32.03;;
76604;SDS011;73179;50.978;16.998;2024-02-28T04:13:44;110.03;;;31.52;;
76604;SDS011;73179;50.978;16.998;2024-02-28T04:16:10;106.45;;;32.55;;
76604;SDS011;73179;50.978;16.998;2024-02-28T04:18:37;100.10;;;29.30;;
76604;SDS011;73179;50.978;16.998;2024-02-28T04:21:03;87.95;;;28.75;;
76604;SDS011;73179;50.978;16.998;2024-02-28T04:23:29;107.95;;;31.88;;
76604;SDS011;73179;50.978;16.998;2024-02-28T04:25:55;92.78;;;28.95;;
76604;SDS011;73179;50.978;16.998;2024-02-28T04:28:21;93.05;;;27.27;;
76604;SDS011;73179;50.978;16.998;2024-02-28T04:30:47;89.25;;;28.38;;
76604;SDS011;73179;50.978;16.998;2024-02-28T04:33:16;103.35;;;28.02;;
76604;SDS011;73179;50.978;16.998;2024-02-28T04:35:42;97.63;;;29.38;;
76604;SDS011;73179;50.978;16.998;2024-02-28T04:38:09;100.80;;;29.20;;
76604;SDS011;73179;50.978;16.998;2024-02-28T04:40:35;80.78;;;27.30;;
76604;SDS011;73179;50.978;16.998;2024-02-28T04:43:02;98.07;;;29.75;;
76604;SDS011;73179;50.978;16.998;2024-02-28T04:45:29;95.65;;;28.08;;
76604;SDS011;73179;50.978;16.998;2024-02-28T04:47:55;92.78;;;27.63;;
76604;SDS011;73179;50.978;16.998;2024-02-28T04:50:23;94.72;;;29.00;;
76604;SDS011;73179;50.978;16.998;2024-02-28T04:52:49;87.13;;;27.63;;
76604;SDS011;73179;50.978;16.998;2024-02-28T04:55:15;87.18;;;27.10;;
76604;SDS011;73179;50.978;16.998;2024-02-28T04:57:42;77.80;;;26.33;;
76604;SDS011;73179;50.978;16.998;2024-02-28T05:00:08;82.22;;;26.92;;
76604;SDS011;73179;50.978;16.998;2024-02-28T05:02:35;98.70;;;27.98;;
76604;SDS011;73179;50.978;16.998;2024-02-28T05:05:01;82.28;;;25.92;;
76604;SDS011;73179;50.978;16.998;2024-02-28T05:07:27;83.97;;;27.25;;
76604;SDS011;73179;50.978;16.998;2024-02-28T05:09:53;79.70;;;24.77;;
76604;SDS011;73179;50.978;16.998;2024-02-28T05:12:19;94.72;;;29.13;;
76604;SDS011;73179;50.978;16.998;2024-02-28T05:14:45;77.40;;;25.55;;
76604;SDS011;73179;50.978;16.998;2024-02-28T05:17:11;76.15;;;23.77;;
76604;SDS011;73179;50.978;16.998;2024-02-28T05:19:38;85.35;;;25.00;;
76604;SDS011;73179;50.978;16.998;2024-02-28T05:22:05;80.18;;;22.52;;
76604;SDS011;73179;50.978;16.998;2024-02-28T05:24:31;78.38;;;24.92;;
76604;SDS011;73179;50.978;16.998;2024-02-28T05:26:57;78.85;;;25.25;;
76604;SDS011;73179;50.978;16.998;2024-02-28T05:29:23;73.75;;;22.45;;
76604;SDS011;73179;50.978;16.998;2024-02-28T05:31:52;77.60;;;24.08;;
76604;SDS011;73179;50.978;16.998;2024-02-28T05:34:18;68.00;;;24.67;;
76604;SDS011;73179;50.978;16.998;2024-02-28T05:36:44;64.07;;;23.55;;
76604;SDS011;73179;50.978;16.998;2024-02-28T05:39:10;70.70;;;22.83;;
76604;SDS011;73179;50.978;16.998;2024-02-28T05:41:37;69.10;;;22.40;;
76604;SDS011;73179;50.978;16.998;2024-02-28T05:44:03;62.10;;;21.30;;
76604;SDS011;73179;50.978;16.998;2024-02-28T05:46:30;60.53;;;22.30;;
76604;SDS011;73179;50.978;16.998;2024-02-28T05:48:56;70.03;;;22.77;;
76604;SDS011;73179;50.978;16.998;2024-02-28T05:51:23;53.72;;;21.83;;
76604;SDS011;73179;50.978;16.998;2024-02-28T05:53:49;67.25;;;22.42;;
76604;SDS011;73179;50.978;16.998;2024-02-28T05:56:16;64.20;;;22.00;;
76604;SDS011;73179;50.978;16.998;2024-02-28T05:58:45;74.28;;;23.45;;
76604;SDS011;73179;50.978;16.998;2024-02-28T06:01:16;62.67;;;22.20;;
76604;SDS011;73179;50.978;16.998;2024-02-28T06:03:47;63.97;;;22.73;;
76604;SDS011;73179;50.978;16.998;2024-02-28T06:06:14;61.33;;;21.92;;
76604;SDS011;73179;50.978;16.998;2024-02-28T06:08:42;60.25;;;23.27;;
76604;SDS011;73179;50.978;16.998;2024-02-28T06:11:10;62.25;;;23.55;;
76604;SDS011;73179;50.978;16.998;2024-02-28T06:13:36;60.08;;;21.25;;
76604;SDS011;73179;50.978;16.998;2024-02-28T06:16:03;65.18;;;23.75;;
76604;SDS011;73179;50.978;16.998;2024-02-28T06:18:29;70.88;;;23.75;;
76604;SDS011;73179;50.978;16.998;2024-02-28T06:20:59;63.88;;;20.92;;
76604;SDS011;73179;50.978;16.998;2024-02-28T06:23:28;58.67;;;21.85;;
76604;SDS011;73179;50.978;16.998;2024-02-28T06:25:55;70.57;;;23.08;;
76604;SDS011;73179;50.978;16.998;2024-02-28T06:28:22;61.38;;;21.85;;
76604;SDS011;73179;50.978;16.998;2024-02-28T06:30:49;63.53;;;20.75;;
76604;SDS011;73179;50.978;16.998;2024-02-28T06:33:15;61.97;;;21.98;;
76604;SDS011;73179;50.978;16.998;2024-02-28T06:35:43;60.17;;;22.00;;
76604;SDS011;73179;50.978;16.998;2024-02-28T06:38:09;61.80;;;22.90;;
76604;SDS011;73179;50.978;16.998;2024-02-28T06:40:36;55.35;;;21.88;;
76604;SDS011;73179;50.978;16.998;2024-02-28T06:43:02;58.00;;;23.60;;
76604;SDS011;73179;50.978;16.998;2024-02-28T06:45:28;62.90;;;24.25;;
76604;SDS011;73179;50.978;16.998;2024-02-28T06:47:54;67.18;;;25.35;;
76604;SDS011;73179;50.978;16.998;2024-02-28T06:50:25;52.33;;;21.98;;
76604;SDS011;73179;50.978;16.998;2024-02-28T06:52:51;59.90;;;23.20;;
76604;SDS011;73179;50.978;16.998;2024-02-28T06:55:19;45.40;;;19.80;;
76604;SDS011;73179;50.978;16.998;2024-02-28T06:57:46;52.78;;;21.40;;
76604;SDS011;73179;50.978;16.998;2024-02-28T07:00:13;48.22;;;20.42;;
76604;SDS011;73179;50.978;16.998;2024-02-28T07:02:44;44.92;;;19.25;;
76604;SDS011;73179;50.978;16.998;2024-02-28T07:05:12;43.80;;;20.65;;
76604;SDS011;73179;50.978;16.998;2024-02-28T07:07:39;43.22;;;19.10;;
76604;SDS011;73179;50.978;16.998;2024-02-28T07:10:06;35.90;;;18.30;;
76604;SDS011;73179;50.978;16.998;2024-02-28T07:12:33;42.25;;;18.55;;
76604;SDS011;73179;50.978;16.998;2024-02-28T07:15:00;38.75;;;17.20;;
76604;SDS011;73179;50.978;16.998;2024-02-28T07:17:26;35.85;;;17.10;;
76604;SDS011;73179;50.978;16.998;2024-02-28T07:19:53;39.88;;;17.50;;
76604;SDS011;73179;50.978;16.998;2024-02-28T07:22:19;37.55;;;18.02;;
76604;SDS011;73179;50.978;16.998;2024-02-28T07:24:47;37.40;;;16.88;;
76604;SDS011;73179;50.978;16.998;2024-02-28T07:27:13;36.38;;;17.70;;
76604;SDS011;73179;50.978;16.998;2024-02-28T07:29:39;36.85;;;16.13;;
76604;SDS011;73179;50.978;16.998;2024-02-28T07:32:06;31.48;;;16.10;;
76604;SDS011;73179;50.978;16.998;2024-02-28T07:34:33;34.53;;;15.10;;
76604;SDS011;73179;50.978;16.998;2024-02-28T07:37:00;28.27;;;15.23;;
76604;SDS011;73179;50.978;16.998;2024-02-28T07:39:29;29.15;;;14.65;;
76604;SDS011;73179;50.978;16.998;2024-02-28T07:41:55;25.60;;;13.27;;
76604;SDS011;73179;50.978;16.998;2024-02-28T07:44:24;24.13;;;13.70;;
76604;SDS011;73179;50.978;16.998;2024-02-28T07:46:51;27.08;;;13.88;;
76604;SDS011;73179;50.978;16.998;2024-02-28T07:49:19;30.92;;;14.07;;
76604;SDS011;73179;50.978;16.998;2024-02-28T07:51:45;25.85;;;15.02;;
76604;SDS011;73179;50.978;16.998;2024-02-28T07:54:12;26.45;;;15.40;;
76604;SDS011;73179;50.978;16.998;2024-02-28T07:56:37;26.15;;;14.43;;
76604;SDS011;73179;50.978;16.998;2024-02-28T07:59:04;26.80;;;14.77;;
76604;SDS011;73179;50.978;16.998;2024-02-28T08:01:30;25.77;;;15.18;;
76604;SDS011;73179;50.978;16.998;2024-02-28T08:03:57;25.67;;;14.25;;
76604;SDS011;73179;50.978;16.998;2024-02-28T08:06:23;65.38;;;29.15;;
76604;SDS011;73179;50.978;16.998;2024-02-28T08:08:52;21.63;;;12.77;;
76604;SDS011;73179;50.978;16.998;2024-02-28T08:11:30;25.02;;;13.38;;
76604;SDS011;73179;50.978;16.998;2024-02-28T08:14:03;25.75;;;13.05;;
76604;SDS011;73179;50.978;16.998;2024-02-28T08:16:42;21.77;;;13.25;;
76604;SDS011;73179;50.978;16.998;2024-02-28T08:19:15;27.25;;;14.10;;
76604;SDS011;73179;50.978;16.998;2024-02-28T08:21:46;23.70;;;12.02;;
76604;SDS011;73179;50.978;16.998;2024-02-28T08:24:56;23.17;;;13.00;;
76604;SDS011;73179;50.978;16.998;2024-02-28T08:27:22;24.70;;;12.35;;
76604;SDS011;73179;50.978;16.998;2024-02-28T08:29:51;21.38;;;11.35;;
76604;SDS011;73179;50.978;16.998;2024-02-28T08:32:17;20.50;;;12.25;;
76604;SDS011;73179;50.978;16.998;2024-02-28T08:34:44;22.13;;;12.55;;
76604;SDS011;73179;50.978;16.998;2024-02-28T08:37:15;23.98;;;11.05;;
76604;SDS011;73179;50.978;16.998;2024-02-28T08:39:43;21.48;;;11.55;;
76604;SDS011;73179;50.978;16.998;2024-02-28T08:42:14;24.45;;;12.48;;
76604;SDS011;73179;50.978;16.998;2024-02-28T08:44:45;21.65;;;12.00;;
76604;SDS011;73179;50.978;16.998;2024-02-28T08:47:14;24.70;;;12.32;;
76604;SDS011;73179;50.978;16.998;2024-02-28T08:49:40;25.35;;;13.85;;
76604;SDS011;73179;50.978;16.998;2024-02-28T08:52:07;30.33;;;13.27;;
76604;SDS011;73179;50.978;16.998;2024-02-28T08:54:34;28.08;;;13.05;;
76604;SDS011;73179;50.978;16.998;2024-02-28T08:57:02;25.60;;;12.48;;
76604;SDS011;73179;50.978;16.998;2024-02-28T08:59:29;29.52;;;13.07;;
76604;SDS011;73179;50.978;16.998;2024-02-28T09:01:56;24.80;;;11.80;;
76604;SDS011;73179;50.978;16.998;2024-02-28T09:04:23;27.08;;;12.43;;
76604;SDS011;73179;50.978;16.998;2024-02-28T09:06:49;23.65;;;12.35;;
76604;SDS011;73179;50.978;16.998;2024-02-28T09:09:16;28.45;;;13.48;;
76604;SDS011;73179;50.978;16.998;2024-02-28T09:11:52;29.52;;;13.60;;
76604;SDS011;73179;50.978;16.998;2024-02-28T09:14:21;26.08;;;14.05;;
76604;SDS011;73179;50.978;16.998;2024-02-28T09:17:03;27.63;;;13.30;;
76604;SDS011;73179;50.978;16.998;2024-02-28T09:19:30;33.45;;;15.55;;
76604;SDS011;73179;50.978;16.998;2024-02-28T09:21:57;30.85;;;15.73;;
76604;SDS011;73179;50.978;16.998;2024-02-28T09:24:24;30.13;;;13.98;;
76604;SDS011;73179;50.978;16.998;2024-02-28T09:26:52;33.22;;;14.63;;
76604;SDS011;73179;50.978;16.998;2024-02-28T09:29:19;36.17;;;14.68;;
76604;SDS011;73179;50.978;16.998;2024-02-28T09:31:45;36.33;;;15.27;;
76604;SDS011;73179;50.978;16.998;2024-02-28T09:34:13;33.63;;;16.10;;
76604;SDS011;73179;50.978;16.998;2024-02-28T09:36:42;33.83;;;14.43;;
76604;SDS011;73179;50.978;16.998;2024-02-28T09:39:12;35.30;;;14.45;;
76604;SDS011;73179;50.978;16.998;2024-02-28T09:41:43;32.90;;;14.80;;
76604;SDS011;73179;50.978;16.998;2024-02-28T09:44:16;32.28;;;14.07;;
76604;SDS011;73179;50.978;16.998;2024-02-28T09:46:43;32.88;;;14.55;;
76604;SDS011;73179;50.978;16.998;2024-02-28T09:49:12;29.15;;;14.43;;
76604;SDS011;73179;50.978;16.998;2024-02-28T09:51:40;29.58;;;13.75;;
76604;SDS011;73179;50.978;16.998;2024-02-28T09:54:07;28.30;;;13.18;;
76604;SDS011;73179;50.978;16.998;2024-02-28T09:56:34;28.15;;;13.35;;
76604;SDS011;73179;50.978;16.998;2024-02-28T09:59:00;26.38;;;11.82;;
76604;SDS011;73179;50.978;16.998;2024-02-28T10:01:29;23.67;;;12.07;;
76604;SDS011;73179;50.978;16.998;2024-02-28T10:03:55;18.98;;;10.15;;
76604;SDS011;73179;50.978;16.998;2024-02-28T10:06:23;22.30;;;10.80;;
76604;SDS011;73179;50.978;16.998;2024-02-28T10:08:49;25.30;;;10.93;;
76604;SDS011;73179;50.978;16.998;2024-02-28T10:11:19;21.53;;;10.67;;
76604;SDS011;73179;50.978;16.998;2024-02-28T10:13:49;17.85;;;10.35;;
76604;SDS011;73179;50.978;16.998;2024-02-28T10:16:16;18.95;;;9.15;;
76604;SDS011;73179;50.978;16.998;2024-02-28T10:18:42;20.13;;;10.15;;
76604;SDS011;73179;50.978;16.998;2024-02-28T10:21:12;20.35;;;9.10;;
76604;SDS011;73179;50.978;16.998;2024-02-28T10:23:41;20.67;;;10.40;;
76604;SDS011;73179;50.978;16.998;2024-02-28T10:26:09;18.25;;;10.57;;
76604;SDS011;73179;50.978;16.998;2024-02-28T10:28:39;20.95;;;11.40;;
76604;SDS011;73179;50.978;16.998;2024-02-28T10:31:06;23.70;;;11.48;;
76604;SDS011;73179;50.978;16.998;2024-02-28T10:33:33;26.65;;;12.68;;
76604;SDS011;73179;50.978;16.998;2024-02-28T10:36:06;20.73;;;11.18;;
76604;SDS011;73179;50.978;16.998;2024-02-28T10:38:32;23.17;;;11.52;;
76604;SDS011;73179;50.978;16.998;2024-02-28T10:40:59;21.48;;;10.65;;
76604;SDS011;73179;50.978;16.998;2024-02-28T10:43:30;23.27;;;12.20;;
76604;SDS011;73179;50.978;16.998;2024-02-28T10:45:57;21.10;;;11.48;;
76604;SDS011;73179;50.978;16.998;2024-02-28T10:48:27;25.15;;;11.82;;
76604;SDS011;73179;50.978;16.998;2024-02-28T10:50:53;21.17;;;11.23;;
76604;SDS011;73179;50.978;16.998;2024-02-28T10:53:26;22.92;;;12.57;;
76604;SDS011;73179;50.978;16.998;2024-02-28T10:55:58;24.05;;;13.32;;
76604;SDS011;73179;50.978;16.998;2024-02-28T10:58:29;25.27;;;14.15;;
76604;SDS011;73179;50.978;16.998;2024-02-28T11:01:05;23.65;;;13.98;;
76604;SDS011;73179;50.978;16.998;2024-02-28T11:03:34;27.65;;;15.88;;
76604;SDS011;73179;50.978;16.998;2024-02-28T11:06:00;25.17;;;13.13;;
76604;SDS011;73179;50.978;16.998;2024-02-28T11:08:39;26.75;;;14.68;;
76604;SDS011;73179;50.978;16.998;2024-02-28T11:11:05;26.42;;;14.95;;
76604;SDS011;73179;50.978;16.998;2024-02-28T11:13:31;26.55;;;14.40;;
76604;SDS011;73179;50.978;16.998;2024-02-28T11:16:06;25.15;;;14.60;;
76604;SDS011;73179;50.978;16.998;2024-02-28T11:18:36;27.08;;;13.25;;
76604;SDS011;73179;50.978;16.998;2024-02-28T11:21:15;22.63;;;12.10;;
76604;SDS011;73179;50.978;16.998;2024-02-28T11:23:47;25.40;;;12.75;;
76604;SDS011;73179;50.978;16.998;2024-02-28T11:26:13;20.83;;;12.48;;
76604;SDS011;73179;50.978;16.998;2024-02-28T11:28:40;21.92;;;11.00;;
76604;SDS011;73179;50.978;16.998;2024-02-28T11:31:06;21.52;;;12.02;;
76604;SDS011;73179;50.978;16.998;2024-02-28T11:33:42;18.80;;;10.18;;
76604;SDS011;73179;50.978;16.998;2024-02-28T11:36:12;17.55;;;10.07;;
76604;SDS011;73179;50.978;16.998;2024-02-28T11:38:42;20.23;;;10.43;;
76604;SDS011;73179;50.978;16.998;2024-02-28T11:41:08;23.77;;;12.80;;
76604;SDS011;73179;50.978;16.998;2024-02-28T11:43:35;28.85;;;13.73;;
76604;SDS011;73179;50.978;16.998;2024-02-28T11:46:08;27.70;;;14.85;;
76604;SDS011;73179;50.978;16.998;2024-02-28T11:48:36;33.92;;;15.30;;
76604;SDS011;73179;50.978;16.998;2024-02-28T11:51:02;31.17;;;14.80;;
76604;SDS011;73179;50.978;16.998;2024-02-28T11:53:28;32.47;;;16.17;;
76604;SDS011;73179;50.978;16.998;2024-02-28T11:55:54;27.88;;;14.75;;
76604;SDS011;73179;50.978;16.998;2024-02-28T11:58:22;28.90;;;14.55;;
76604;SDS011;73179;50.978;16.998;2024-02-28T12:00:48;29.85;;;15.07;;
76604;SDS011;73179;50.978;16.998;2024-02-28T12:03:22;28.00;;;15.77;;
76604;SDS011;73179;50.978;16.998;2024-02-28T12:05:49;28.67;;;15.45;;
76604;SDS011;73179;50.978;16.998;2024-02-28T12:08:17;28.02;;;15.20;;
76604;SDS011;73179;50.978;16.998;2024-02-28T12:10:44;25.45;;;13.63;;
76604;SDS011;73179;50.978;16.998;2024-02-28T12:13:17;27.98;;;14.57;;
76604;SDS011;73179;50.978;16.998;2024-02-28T12:15:45;26.73;;;13.90;;
76604;SDS011;73179;50.978;16.998;2024-02-28T12:18:14;26.35;;;13.48;;
76604;SDS011;73179;50.978;16.998;2024-02-28T12:20:41;26.70;;;14.70;;
76604;SDS011;73179;50.978;16.998;2024-02-28T12:23:07;23.40;;;13.18;;
76604;SDS011;73179;50.978;16.998;2024-02-28T12:25:34;23.17;;;12.82;;
76604;SDS011;73179;50.978;16.998;2024-02-28T12:28:03;24.75;;;12.80;;
76604;SDS011;73179;50.978;16.998;2024-02-28T12:30:39;23.42;;;12.15;;
76604;SDS011;73179;50.978;16.998;2024-02-28T12:33:08;25.15;;;13.68;;
76604;SDS011;73179;50.978;16.998;2024-02-28T12:35:37;29.17;;;14.75;;
76604;SDS011;73179;50.978;16.998;2024-02-28T12:38:04;27.08;;;13.38;;
76604;SDS011;73179;50.978;16.998;2024-02-28T12:40:31;25.60;;;12.82;;
76604;SDS011;73179;50.978;16.998;2024-02-28T12:42:57;20.60;;;11.63;;
76604;SDS011;73179;50.978;16.998;2024-02-28T12:45:23;18.40;;;10.35;;
76604;SDS011;73179;50.978;16.998;2024-02-28T12:47:50;19.90;;;10.77;;
76604;SDS011;73179;50.978;16.998;2024-02-28T12:50:16;20.77;;;12.43;;
76604;SDS011;73179;50.978;16.998;2024-02-28T12:52:52;19.35;;;10.05;;
76604;SDS011;73179;50.978;16.998;2024-02-28T12:55:45;21.20;;;11.80;;
76604;SDS011;73179;50.978;16.998;2024-02-28T12:58:15;25.50;;;12.82;;
76604;SDS011;73179;50.978;16.998;2024-02-28T13:00:49;27.30;;;13.05;;
76604;SDS011;73179;50.978;16.998;2024-02-28T13:03:16;24.38;;;12.40;;
76604;SDS011;73179;50.978;16.998;2024-02-28T13:05:44;23.02;;;13.25;;
76604;SDS011;73179;50.978;16.998;2024-02-28T13:08:10;24.90;;;13.85;;
76604;SDS011;73179;50.978;16.998;2024-02-28T13:10:36;26.60;;;14.23;;
76604;SDS011;73179;50.978;16.998;2024-02-28T13:13:05;29.45;;;13.40;;
76604;SDS011;73179;50.978;16.998;2024-02-28T13:15:31;28.95;;;14.25;;
76604;SDS011;73179;50.978;16.998;2024-02-28T13:17:58;33.72;;;15.63;;
76604;SDS011;73179;50.978;16.998;2024-02-28T13:20:24;34.67;;;15.48;;
76604;SDS011;73179;50.978;16.998;2024-02-28T13:22:50;34.97;;;16.70;;
76604;SDS011;73179;50.978;16.998;2024-02-28T13:25:19;39.33;;;17.30;;
76604;SDS011;73179;50.978;16.998;2024-02-28T13:27:46;35.03;;;16.40;;
76604;SDS011;73179;50.978;16.998;2024-02-28T13:30:12;36.83;;;16.30;;
76604;SDS011;73179;50.978;16.998;2024-02-28T13:32:40;41.58;;;18.55;;
76604;SDS011;73179;50.978;16.998;2024-02-28T13:35:07;37.83;;;17.70;;
76604;SDS011;73179;50.978;16.998;2024-02-28T13:37:34;45.50;;;18.83;;
76604;SDS011;73179;50.978;16.998;2024-02-28T13:40:01;43.58;;;19.77;;
76604;SDS011;73179;50.978;16.998;2024-02-28T13:42:27;43.03;;;19.30;;
76604;SDS011;73179;50.978;16.998;2024-02-28T13:44:53;43.47;;;18.55;;
76604;SDS011;73179;50.978;16.998;2024-02-28T13:47:21;42.95;;;18.38;;
76604;SDS011;73179;50.978;16.998;2024-02-28T13:49:49;42.17;;;17.63;;
76604;SDS011;73179;50.978;16.998;2024-02-28T13:52:16;41.85;;;17.98;;
76604;SDS011;73179;50.978;16.998;2024-02-28T13:54:47;34.00;;;16.83;;
76604;SDS011;73179;50.978;16.998;2024-02-28T13:57:13;43.42;;;17.48;;
76604;SDS011;73179;50.978;16.998;2024-02-28T13:59:39;42.15;;;17.55;;
76604;SDS011;73179;50.978;16.998;2024-02-28T14:02:05;45.05;;;18.35;;
76604;SDS011;73179;50.978;16.998;2024-02-28T14:04:34;35.03;;;16.17;;
76604;SDS011;73179;50.978;16.998;2024-02-28T14:07:00;39.10;;;16.20;;
76604;SDS011;73179;50.978;16.998;2024-02-28T14:09:29;43.08;;;18.48;;